Time;durP1;ratioP1;P1;durP2;ratioP2;P2;SDS_P1;SDS_P2;PMS_P1;PMS_P2;Temp;Humidity;BMP_temperature;BMP_pressure;BME280_temperature;BME280_humidity;BME280_pressure;Samples;Min_cycle;Max_cycle;Signal;HPM_P1;HPM_P2
2023/12/23 00:02:08;;;;;;;13.95;2.67;;;6.90;99.90;;;;;;5024054;28;20049;-59
2023/12/23 00:04:34;;;;;;;14.77;2.38;;;6.90;99.90;;;;;;5029727;28;20032;-61
2023/12/23 00:06:59;;;;;;;13.82;2.38;;;6.80;99.90;;;;;;5024652;28;20478;-59
2023/12/23 00:09:25;;;;;;;14.57;3.05;;;6.80;99.90;;;;;;5025002;28;20043;-58
2023/12/23 00:11:51;;;;;;;19.50;2.92;;;6.80;99.90;;;;;;5028073;28;20067;-60
2023/12/23 00:14:16;;;;;;;18.80;4.75;;;6.80;99.90;;;;;;5027262;28;20040;-60
2023/12/23 00:16:42;;;;;;;12.68;2.47;;;6.80;99.90;;;;;;5045617;28;20517;-61
2023/12/23 00:19:09;;;;;;;19.45;3.10;;;6.70;99.90;;;;;;5010108;28;20102;-60
2023/12/23 00:21:35;;;;;;;19.77;3.58;;;6.70;99.90;;;;;;5026926;28;20045;-61
2023/12/23 00:24:01;;;;;;;23.35;2.65;;;6.70;99.90;;;;;;5025638;28;20051;-60
2023/12/23 00:26:26;;;;;;;15.25;3.47;;;6.70;99.90;;;;;;5016306;28;20085;-61
2023/12/23 00:28:52;;;;;;;15.82;3.30;;;6.70;99.90;;;;;;5014363;28;20291;-60
2023/12/23 00:31:18;;;;;;;21.00;3.88;;;6.70;99.90;;;;;;5020886;28;20056;-59
2023/12/23 00:33:47;;;;;;;23.08;3.33;;;6.70;99.90;;;;;;5023505;28;20053;-60
2023/12/23 00:36:13;;;;;;;16.02;3.00;;;6.80;99.90;;;;;;5019735;28;20449;-60
2023/12/23 00:38:39;;;;;;;19.98;3.33;;;6.80;99.90;;;;;;5007039;28;20074;-61
2023/12/23 00:41:04;;;;;;;25.92;3.78;;;6.80;99.90;;;;;;5020691;28;20076;-59
2023/12/23 00:43:30;;;;;;;20.48;4.00;;;6.90;99.90;;;;;;5025404;28;20513;-59
2023/12/23 00:45:56;;;;;;;19.33;4.93;;;6.90;99.90;;;;;;5010640;28;20053;-59
2023/12/23 00:48:22;;;;;;;17.70;3.63;;;6.90;99.90;;;;;;4993794;28;20037;-59
2023/12/23 00:50:48;;;;;;;14.07;2.83;;;6.90;99.90;;;;;;5025608;28;20033;-60
2023/12/23 00:53:13;;;;;;;21.73;3.22;;;6.90;99.90;;;;;;5022936;28;20159;-60
2023/12/23 00:55:39;;;;;;;18.08;3.42;;;6.90;99.90;;;;;;5023292;28;20037;-61
2023/12/23 00:58:05;;;;;;;20.35;4.40;;;6.90;99.90;;;;;;5046620;28;20134;-61
2023/12/23 01:00:30;;;;;;;13.85;3.80;;;7.00;99.90;;;;;;5021229;28;20382;-60
2023/12/23 01:02:56;;;;;;;21.55;3.33;;;7.10;99.90;;;;;;5047081;28;20621;-60
2023/12/23 01:05:21;;;;;;;19.73;3.42;;;7.10;99.90;;;;;;5011991;28;20154;-58
2023/12/23 01:07:47;;;;;;;22.80;3.58;;;7.10;99.90;;;;;;5027215;28;20040;-59
2023/12/23 01:10:13;;;;;;;18.80;4.13;;;7.10;99.90;;;;;;5009647;28;20456;-60
2023/12/23 01:12:39;;;;;;;17.60;3.33;;;7.10;99.90;;;;;;5029102;28;20033;-61
2023/12/23 01:15:05;;;;;;;19.77;3.15;;;7.10;99.90;;;;;;5027963;28;20496;-61
2023/12/23 01:17:31;;;;;;;24.23;3.85;;;7.10;99.90;;;;;;5023600;28;20045;-61
2023/12/23 01:19:56;;;;;;;17.17;3.42;;;7.20;99.90;;;;;;5029425;28;20044;-59
2023/12/23 01:22:22;;;;;;;20.88;3.00;;;7.10;99.90;;;;;;5026999;28;20041;-59
2023/12/23 01:24:48;;;;;;;11.50;2.20;;;7.10;99.90;;;;;;5024885;28;20064;-60
2023/12/23 01:27:14;;;;;;;18.35;2.97;;;7.10;99.90;;;;;;5024614;28;21285;-60
2023/12/23 01:29:40;;;;;;;12.18;3.05;;;7.10;99.90;;;;;;5025259;28;20107;-59
2023/12/23 01:32:06;;;;;;;19.38;2.70;;;7.10;99.90;;;;;;5025581;28;20111;-60
2023/12/23 01:34:31;;;;;;;15.60;3.53;;;7.10;99.90;;;;;;5028331;28;20564;-61
2023/12/23 01:36:57;;;;;;;14.23;2.95;;;7.10;99.90;;;;;;5024646;28;20056;-61
2023/12/23 01:39:23;;;;;;;23.45;3.67;;;7.10;99.90;;;;;;5026497;28;20390;-60
2023/12/23 01:41:49;;;;;;;19.88;4.45;;;7.10;99.90;;;;;;5025455;28;20039;-61
2023/12/23 01:44:15;;;;;;;13.77;3.15;;;7.10;99.90;;;;;;5023201;28;20120;-58
2023/12/23 01:46:41;;;;;;;22.92;3.00;;;7.10;99.90;;;;;;5042090;28;20059;-60
2023/12/23 01:49:07;;;;;;;10.05;2.35;;;7.10;99.90;;;;;;5024529;28;20522;-59
2023/12/23 01:51:33;;;;;;;14.18;2.03;;;7.20;99.90;;;;;;5009082;28;20040;-60
2023/12/23 01:54:04;;;;;;;15.40;2.08;;;7.10;99.90;;;;;;5029100;28;20044;-60
2023/12/23 01:56:31;;;;;;;11.63;2.75;;;7.10;99.90;;;;;;5041860;28;20113;-61
2023/12/23 01:59:00;;;;;;;10.75;2.10;;;7.00;99.90;;;;;;5023586;28;20056;-61
2023/12/23 02:01:26;;;;;;;7.32;1.70;;;7.00;99.90;;;;;;5023301;28;20059;-60
2023/12/23 02:03:52;;;;;;;7.68;1.50;;;6.80;99.90;;;;;;5022970;28;20116;-59
2023/12/23 02:06:17;;;;;;;12.80;1.42;;;6.70;99.90;;;;;;5008476;28;20699;-61
2023/12/23 02:08:43;;;;;;;7.35;1.80;;;6.70;99.90;;;;;;5011944;28;20040;-61
2023/12/23 02:11:19;;;;;;;9.90;2.28;;;6.70;99.90;;;;;;5024368;28;20037;-60
2023/12/23 02:14:04;;;;;;;16.17;3.08;;;6.70;99.90;;;;;;5025663;28;20406;-60
2023/12/23 02:16:31;;;;;;;13.48;2.65;;;6.60;99.90;;;;;;5027601;28;20366;-61
2023/12/23 02:18:57;;;;;;;13.60;2.15;;;6.50;99.90;;;;;;5024058;28;20051;-61
2023/12/23 02:21:23;;;;;;;12.32;2.22;;;6.50;99.90;;;;;;5024428;28;20040;-62
2023/12/23 02:23:49;;;;;;;12.82;2.28;;;6.50;99.90;;;;;;5025272;28;20401;-61
2023/12/23 02:26:18;;;;;;;12.50;1.85;;;6.50;99.90;;;;;;5028506;28;20037;-61
2023/12/23 02:28:51;;;;;;;8.80;2.20;;;6.50;99.90;;;;;;5029757;28;20345;-62
2023/12/23 02:31:18;;;;;;;10.00;1.77;;;6.50;99.90;;;;;;5028038;28;20490;-61
2023/12/23 02:33:47;;;;;;;11.48;1.63;;;6.40;99.90;;;;;;5028034;28;20387;-61
2023/12/23 02:36:13;;;;;;;12.20;1.92;;;6.50;99.90;;;;;;5026494;28;20047;-61
2023/12/23 02:38:39;;;;;;;13.15;2.17;;;6.40;99.90;;;;;;5010180;28;20261;-61
2023/12/23 02:41:04;;;;;;;14.13;1.98;;;6.40;99.90;;;;;;5024991;28;20499;-62
2023/12/23 02:43:30;;;;;;;10.43;1.70;;;6.40;99.90;;;;;;5023108;28;20484;-61
2023/12/23 02:45:56;;;;;;;13.45;1.77;;;6.30;99.90;;;;;;5026015;28;20307;-59
2023/12/23 02:48:21;;;;;;;14.30;2.00;;;6.30;99.90;;;;;;5025630;28;20067;-61
2023/12/23 02:50:47;;;;;;;12.20;2.10;;;6.30;99.90;;;;;;5024235;28;20060;-61
2023/12/23 02:53:13;;;;;;;10.00;2.33;;;6.30;99.90;;;;;;5027075;28;20037;-61
2023/12/23 02:55:38;;;;;;;10.98;1.90;;;6.30;99.90;;;;;;5028987;28;20045;-61
2023/12/23 02:58:04;;;;;;;15.85;2.08;;;6.30;99.90;;;;;;5037762;28;20390;-61
2023/12/23 03:00:30;;;;;;;13.50;1.88;;;6.30;99.90;;;;;;5040194;28;20047;-61
2023/12/23 03:02:57;;;;;;;10.18;1.90;;;6.30;99.90;;;;;;5029551;28;20037;-60
2023/12/23 03:05:22;;;;;;;15.57;1.98;;;6.40;99.90;;;;;;5028552;28;20036;-60
2023/12/23 03:07:48;;;;;;;17.33;2.75;;;6.40;99.90;;;;;;5041354;28;20032;-61
2023/12/23 03:10:14;;;;;;;13.25;1.88;;;6.30;99.90;;;;;;5027131;28;20075;-61
2023/12/23 03:12:39;;;;;;;17.40;1.90;;;6.30;99.90;;;;;;5008876;28;20130;-61
2023/12/23 03:15:06;;;;;;;13.82;2.33;;;6.40;99.90;;;;;;5026965;28;20483;-62
2023/12/23 03:17:32;;;;;;;11.63;1.63;;;6.40;99.90;;;;;;5026380;28;20502;-61
2023/12/23 03:19:58;;;;;;;12.40;1.92;;;6.40;99.90;;;;;;5014221;28;20048;-61
2023/12/23 03:22:23;;;;;;;13.02;2.08;;;6.40;99.90;;;;;;5028944;28;20420;-61
2023/12/23 03:24:49;;;;;;;11.35;1.92;;;6.40;99.90;;;;;;5026507;28;20470;-62
2023/12/23 03:27:15;;;;;;;17.45;2.42;;;6.40;99.90;;;;;;5025419;28;20045;-62
2023/12/23 03:29:40;;;;;;;12.98;2.42;;;6.50;99.90;;;;;;5026871;28;20521;-62
2023/12/23 03:32:07;;;;;;;12.95;1.90;;;6.50;99.90;;;;;;5024217;28;20043;-60
2023/12/23 03:34:32;;;;;;;10.77;1.80;;;6.50;99.90;;;;;;5025339;28;20045;-61
2023/12/23 03:36:58;;;;;;;10.45;1.55;;;6.50;99.90;;;;;;5024381;28;20048;-61
2023/12/23 03:39:24;;;;;;;11.63;1.92;;;6.50;99.90;;;;;;5011445;28;20052;-61
2023/12/23 03:41:50;;;;;;;7.47;1.70;;;6.50;99.90;;;;;;5026312;28;20049;-61
2023/12/23 03:44:15;;;;;;;12.20;1.70;;;6.60;99.90;;;;;;5027385;28;20044;-62
2023/12/23 03:46:41;;;;;;;8.30;1.95;;;6.60;99.90;;;;;;5023240;28;20037;-61
2023/12/23 03:49:06;;;;;;;12.88;2.28;;;6.60;99.90;;;;;;5029185;28;20051;-62
2023/12/23 03:51:32;;;;;;;8.52;1.95;;;6.60;99.90;;;;;;5024668;28;20502;-62
2023/12/23 03:53:58;;;;;;;11.35;1.85;;;6.60;99.90;;;;;;5024180;28;20037;-62
2023/12/23 03:56:23;;;;;;;10.00;2.03;;;6.60;99.90;;;;;;5027647;28;20048;-62
2023/12/23 03:58:49;;;;;;;9.80;2.08;;;6.60;99.90;;;;;;5010761;28;20044;-62
2023/12/23 04:01:18;;;;;;;8.95;2.20;;;6.60;99.90;;;;;;5026480;28;20048;-62
2023/12/23 04:03:44;;;;;;;8.20;2.03;;;6.60;99.90;;;;;;5027089;28;20037;-62
2023/12/23 04:06:11;;;;;;;9.05;2.00;;;6.60;99.90;;;;;;5027546;28;20049;-62
2023/12/23 04:08:39;;;;;;;5.82;1.40;;;6.60;99.90;;;;;;5029031;28;20040;-62
2023/12/23 04:11:05;;;;;;;4.30;1.48;;;6.60;99.90;;;;;;5026458;28;20044;-62
2023/12/23 04:13:30;;;;;;;7.78;2.17;;;6.60;99.90;;;;;;5023200;28;20047;-62
2023/12/23 04:15:56;;;;;;;8.38;1.38;;;6.60;99.90;;;;;;5027800;28;20040;-62
2023/12/23 04:18:22;;;;;;;6.72;1.65;;;6.60;99.90;;;;;;5028551;28;20066;-62
2023/12/23 04:20:47;;;;;;;6.13;1.70;;;6.60;99.90;;;;;;5029226;28;20397;-61
2023/12/23 04:23:13;;;;;;;6.97;1.67;;;6.70;99.90;;;;;;5019349;28;20037;-61
2023/12/23 04:25:39;;;;;;;6.07;1.63;;;6.60;99.90;;;;;;5027286;28;20489;-61
2023/12/23 04:28:05;;;;;;;5.93;1.02;;;6.70;99.90;;;;;;5029422;28;20045;-62
2023/12/23 04:30:30;;;;;;;5.28;2.15;;;6.60;99.90;;;;;;5046128;28;20545;-62
2023/12/23 04:32:56;;;;;;;6.95;1.50;;;6.60;99.90;;;;;;5027617;28;20102;-62
2023/12/23 04:35:22;;;;;;;5.78;1.38;;;6.70;99.90;;;;;;5008521;28;20086;-61
2023/12/23 04:37:47;;;;;;;5.68;1.27;;;6.70;99.90;;;;;;5028883;28;20049;-61
2023/12/23 04:40:14;;;;;;;2.72;1.00;;;6.70;99.90;;;;;;5024778;28;20060;-62
2023/12/23 04:42:40;;;;;;;3.22;1.05;;;6.70;99.90;;;;;;5025928;28;20501;-62
2023/12/23 04:45:06;;;;;;;5.45;1.35;;;6.60;99.90;;;;;;5009604;28;20071;-61
2023/12/23 04:47:32;;;;;;;3.35;1.10;;;6.60;99.90;;;;;;5025796;28;20045;-61
2023/12/23 04:49:58;;;;;;;5.72;1.40;;;6.70;99.90;;;;;;5042699;28;20251;-61
2023/12/23 04:52:23;;;;;;;6.07;1.55;;;6.60;99.90;;;;;;5020815;28;20041;-61
2023/12/23 04:54:49;;;;;;;2.65;1.48;;;6.60;99.90;;;;;;5021200;28;20046;-61
2023/12/23 04:57:15;;;;;;;2.00;1.02;;;6.60;99.90;;;;;;5028290;28;20044;-59
2023/12/23 04:59:44;;;;;;;1.15;0.70;;;6.70;99.90;;;;;;5018157;28;20487;-60
2023/12/23 05:02:10;;;;;;;2.10;0.90;;;6.60;99.90;;;;;;5020820;28;20437;-61
2023/12/23 05:04:35;;;;;;;2.60;0.68;;;6.60;99.90;;;;;;5048162;28;20044;-61
2023/12/23 05:07:01;;;;;;;3.63;1.20;;;6.60;99.90;;;;;;5024927;28;20045;-61
2023/12/23 05:09:30;;;;;;;2.08;0.85;;;6.60;99.90;;;;;;5044328;28;20047;-61
2023/12/23 05:11:55;;;;;;;2.78;0.90;;;6.60;99.90;;;;;;5025538;28;20120;-60
2023/12/23 05:14:21;;;;;;;1.90;0.80;;;6.60;99.90;;;;;;5028733;28;20120;-59
2023/12/23 05:16:48;;;;;;;1.20;0.75;;;6.60;99.90;;;;;;5009582;28;20504;-61
2023/12/23 05:19:14;;;;;;;1.77;0.70;;;6.60;99.90;;;;;;5023795;28;20049;-60
2023/12/23 05:21:43;;;;;;;1.48;0.80;;;6.60;99.90;;;;;;5045384;28;20083;-59
2023/12/23 05:24:08;;;;;;;1.02;0.55;;;6.60;99.90;;;;;;5042840;22;20128;-61
2023/12/23 05:26:34;;;;;;;1.20;0.70;;;6.60;99.90;;;;;;5063383;28;20173;-62
2023/12/23 05:29:00;;;;;;;2.47;0.55;;;6.60;99.90;;;;;;5059551;28;20055;-62
2023/12/23 05:31:26;;;;;;;2.05;0.70;;;6.60;99.90;;;;;;5057102;28;20565;-62
2023/12/23 05:33:55;;;;;;;1.67;0.63;;;6.50;99.90;;;;;;5058445;28;20554;-61
2023/12/23 05:36:22;;;;;;;1.02;0.60;;;6.60;99.90;;;;;;5058421;28;20119;-61
2023/12/23 05:38:47;;;;;;;2.33;0.93;;;6.60;99.90;;;;;;5064795;28;20055;-61
2023/12/23 05:41:13;;;;;;;0.73;0.50;;;6.60;99.90;;;;;;5047845;28;20101;-61
2023/12/23 05:43:39;;;;;;;2.13;1.13;;;6.60;99.90;;;;;;5077224;28;20048;-61
2023/12/23 05:46:05;;;;;;;0.90;0.60;;;6.60;99.90;;;;;;5064397;28;20102;-61
2023/12/23 05:48:30;;;;;;;1.30;0.55;;;6.60;99.90;;;;;;5065373;28;20500;-61
2023/12/23 05:50:56;;;;;;;1.30;0.70;;;6.60;99.90;;;;;;5062285;28;20528;-61
2023/12/23 05:53:22;;;;;;;1.23;0.80;;;6.60;99.90;;;;;;5044343;28;20267;-61
2023/12/23 05:55:48;;;;;;;2.03;0.80;;;6.60;99.90;;;;;;5066423;28;20044;-61
2023/12/23 05:58:14;;;;;;;1.60;0.77;;;6.60;99.90;;;;;;5051189;28;20377;-61
2023/12/23 06:00:40;;;;;;;2.03;0.95;;;6.60;99.90;;;;;;5064022;28;20617;-62
2023/12/23 06:03:05;;;;;;;1.17;0.60;;;6.50;99.90;;;;;;5065426;28;20028;-62
2023/12/23 06:05:31;;;;;;;1.60;0.70;;;6.50;99.90;;;;;;5067070;28;20051;-61
2023/12/23 06:07:58;;;;;;;1.27;0.77;;;6.50;99.90;;;;;;5050791;28;20044;-62
2023/12/23 06:10:24;;;;;;;0.90;0.55;;;6.50;99.90;;;;;;5080539;28;20036;-62
2023/12/23 06:12:50;;;;;;;2.53;0.70;;;6.50;99.90;;;;;;5085321;28;20028;-61
2023/12/23 06:15:16;;;;;;;1.92;0.82;;;6.50;99.90;;;;;;5062338;28;20481;-61
2023/12/23 06:17:41;;;;;;;1.55;0.65;;;6.50;99.90;;;;;;5066963;28;20046;-60
2023/12/23 06:20:08;;;;;;;2.05;0.93;;;6.60;99.90;;;;;;5052893;28;20314;-61
2023/12/23 06:22:33;;;;;;;1.42;0.70;;;6.60;99.90;;;;;;5067812;28;20063;-62
2023/12/23 06:24:59;;;;;;;3.78;0.80;;;6.60;99.90;;;;;;5065596;28;20036;-62
2023/12/23 06:27:25;;;;;;;3.15;1.40;;;6.60;99.90;;;;;;5068604;28;20044;-61
2023/12/23 06:29:50;;;;;;;3.08;1.10;;;6.60;99.90;;;;;;5071635;28;20138;-61
2023/12/23 06:32:16;;;;;;;2.72;1.20;;;6.60;99.90;;;;;;5060459;28;20035;-62
2023/12/23 06:34:42;;;;;;;4.78;1.63;;;6.60;99.90;;;;;;5065955;28;20101;-61
2023/12/23 06:37:07;;;;;;;3.95;1.10;;;6.60;99.90;;;;;;5067408;28;20079;-62
2023/12/23 06:39:33;;;;;;;5.00;1.73;;;6.60;99.90;;;;;;5050535;28;20055;-61
2023/12/23 06:41:59;;;;;;;3.17;1.10;;;6.60;99.90;;;;;;5067046;28;20083;-60
2023/12/23 06:44:24;;;;;;;2.92;1.15;;;6.60;99.90;;;;;;5066995;28;20067;-61
2023/12/23 06:46:51;;;;;;;1.90;0.85;;;6.60;99.90;;;;;;5066521;28;20520;-61
2023/12/23 06:49:17;;;;;;;3.58;1.08;;;6.60;99.90;;;;;;5066087;28;20036;-61
2023/12/23 06:51:43;;;;;;;1.95;1.00;;;6.60;99.90;;;;;;5068736;28;20055;-61
2023/12/23 06:54:09;;;;;;;1.60;0.90;;;6.60;99.90;;;;;;5067124;28;20051;-61
2023/12/23 06:56:34;;;;;;;2.40;0.88;;;6.60;99.90;;;;;;5049180;28;20036;-61
2023/12/23 06:59:01;;;;;;;2.85;1.05;;;6.60;99.90;;;;;;5083651;28;20039;-60
2023/12/23 07:01:38;;;;;;;3.72;1.23;;;6.60;99.90;;;;;;5063753;28;20778;-60
2023/12/23 07:04:04;;;;;;;2.00;0.77;;;6.50;99.90;;;;;;5045614;28;20036;-62
2023/12/23 07:06:30;;;;;;;1.90;0.65;;;6.50;99.90;;;;;;5064914;28;20059;-61
2023/12/23 07:08:56;;;;;;;3.33;1.05;;;6.50;99.90;;;;;;5061634;28;20477;-61
2023/12/23 07:11:21;;;;;;;2.40;0.93;;;6.50;99.90;;;;;;5048302;28;20036;-62
2023/12/23 07:13:47;;;;;;;1.98;1.40;;;6.50;99.90;;;;;;5060823;28;20080;-62
2023/12/23 07:16:13;;;;;;;2.60;1.50;;;6.50;99.90;;;;;;5064235;28;20036;-61
2023/12/23 07:18:38;;;;;;;3.00;1.30;;;6.50;99.90;;;;;;5045953;28;20043;-62
2023/12/23 07:21:04;;;;;;;3.25;1.33;;;6.50;99.90;;;;;;5049963;28;20067;-62
2023/12/23 07:23:30;;;;;;;3.97;2.08;;;6.50;99.90;;;;;;5049789;28;20127;-61
2023/12/23 07:25:55;;;;;;;3.05;1.70;;;6.50;99.90;;;;;;5066267;28;20048;-61
2023/12/23 07:28:21;;;;;;;7.43;2.42;;;6.50;99.90;;;;;;5067757;28;20408;-61
2023/12/23 07:30:47;;;;;;;2.60;1.50;;;6.50;99.90;;;;;;5063703;28;20044;-61
2023/12/23 07:33:13;;;;;;;1.70;0.90;;;6.50;99.90;;;;;;5048296;28;20391;-61
2023/12/23 07:35:39;;;;;;;1.75;1.00;;;6.50;99.90;;;;;;5068342;28;20058;-61
2023/12/23 07:38:05;;;;;;;1.77;0.90;;;6.50;99.90;;;;;;5063525;28;20040;-60
2023/12/23 07:40:31;;;;;;;1.48;0.60;;;6.40;99.90;;;;;;5066545;28;20047;-60
2023/12/23 07:42:58;;;;;;;3.08;1.17;;;6.40;99.90;;;;;;5062744;28;20491;-61
2023/12/23 07:45:24;;;;;;;1.10;0.70;;;6.40;99.90;;;;;;5066355;28;20115;-62
2023/12/23 07:47:49;;;;;;;1.83;0.70;;;6.30;99.90;;;;;;5060096;28;20131;-62
2023/12/23 07:50:15;;;;;;;1.38;0.60;;;6.30;99.90;;;;;;5044217;28;20485;-61
2023/12/23 07:52:41;;;;;;;1.42;0.55;;;6.30;99.90;;;;;;5047590;28;20174;-61
2023/12/23 07:55:07;;;;;;;2.47;0.88;;;6.30;99.90;;;;;;5048353;28;20056;-61
2023/12/23 07:57:33;;;;;;;3.60;2.40;;;6.30;99.90;;;;;;5051381;28;20040;-60
2023/12/23 07:59:59;;;;;;;2.25;1.20;;;6.40;99.90;;;;;;5049691;28;20047;-61
2023/12/23 08:02:24;;;;;;;2.05;1.40;;;6.40;99.90;;;;;;5065910;28;20093;-61
2023/12/23 08:04:50;;;;;;;5.15;3.80;;;6.40;99.90;;;;;;5049826;28;20040;-61
2023/12/23 08:07:16;;;;;;;4.90;3.85;;;6.40;99.90;;;;;;5063448;28;20091;-61
2023/12/23 08:09:42;;;;;;;6.63;5.07;;;6.40;99.90;;;;;;5067817;28;20032;-61
2023/12/23 08:12:08;;;;;;;6.10;4.88;;;6.40;99.90;;;;;;5059190;28;20047;-61
2023/12/23 08:14:34;;;;;;;4.93;3.08;;;6.40;99.90;;;;;;5063907;28;20046;-61
2023/12/23 08:16:59;;;;;;;3.42;1.60;;;6.40;99.90;;;;;;5064999;28;20043;-61
2023/12/23 08:19:25;;;;;;;2.67;0.85;;;6.40;99.90;;;;;;5047649;28;20123;-61
2023/12/23 08:21:51;;;;;;;3.33;1.00;;;6.40;99.90;;;;;;5048839;28;20079;-60
2023/12/23 08:24:17;;;;;;;1.50;0.80;;;6.40;99.90;;;;;;5064578;28;20819;-61
2023/12/23 08:26:42;;;;;;;1.95;0.95;;;6.40;99.90;;;;;;5044606;28;20487;-61
2023/12/23 08:29:09;;;;;;;3.22;1.30;;;6.40;99.90;;;;;;5061513;28;20036;-61
2023/12/23 08:31:45;;;;;;;3.35;1.88;;;6.30;99.90;;;;;;5055133;28;20690;-61
2023/12/23 08:34:11;;;;;;;3.25;1.75;;;6.40;99.90;;;;;;5066109;28;20534;-61
2023/12/23 08:36:36;;;;;;;4.32;1.30;;;6.40;99.90;;;;;;5066246;28;20547;-61
2023/12/23 08:39:02;;;;;;;2.33;1.08;;;6.30;99.90;;;;;;5068655;28;20059;-61
2023/12/23 08:41:31;;;;;;;1.88;0.70;;;6.30;99.90;;;;;;5067357;28;20385;-61
2023/12/23 08:43:57;;;;;;;0.98;0.60;;;6.30;99.90;;;;;;5051243;28;20043;-62
2023/12/23 08:46:22;;;;;;;4.03;2.20;;;6.30;99.90;;;;;;5048229;28;20119;-61
2023/12/23 08:48:48;;;;;;;1.63;0.90;;;6.40;99.90;;;;;;5045958;28;20063;-61
2023/12/23 08:51:14;;;;;;;1.10;0.50;;;6.40;99.90;;;;;;5063755;28;20236;-61
2023/12/23 08:53:39;;;;;;;0.93;0.55;;;6.40;99.90;;;;;;5049930;28;20043;-61
2023/12/23 08:56:05;;;;;;;2.45;0.88;;;6.40;99.90;;;;;;5064074;28;20044;-61
2023/12/23 08:58:31;;;;;;;0.52;0.40;;;6.40;99.90;;;;;;5047799;28;20048;-61
2023/12/23 09:01:00;;;;;;;1.67;0.60;;;6.40;99.90;;;;;;5059323;28;20040;-61
2023/12/23 09:03:26;;;;;;;2.05;1.35;;;6.40;99.90;;;;;;5062565;28;20130;-61
2023/12/23 09:05:52;;;;;;;0.40;0.40;;;6.40;99.90;;;;;;5050427;28;20046;-61
2023/12/23 09:08:18;;;;;;;2.15;1.10;;;6.40;99.90;;;;;;5065962;28;20055;-61
2023/12/23 09:10:44;;;;;;;2.25;1.10;;;6.40;99.90;;;;;;5063960;28;20522;-62
2023/12/23 09:13:09;;;;;;;1.02;0.63;;;6.40;99.90;;;;;;5056106;28;20044;-61
2023/12/23 09:15:37;;;;;;;0.68;0.50;;;6.40;99.90;;;;;;5048767;28;20052;-61
2023/12/23 09:18:03;;;;;;;0.75;0.40;;;6.30;99.90;;;;;;5063403;28;20436;-61
2023/12/23 09:20:29;;;;;;;1.13;0.70;;;6.40;99.90;;;;;;5066394;28;20040;-60
2023/12/23 09:22:54;;;;;;;1.58;0.70;;;6.40;99.90;;;;;;5061932;28;20047;-61
2023/12/23 09:25:20;;;;;;;1.10;0.73;;;6.40;99.90;;;;;;5046845;28;20043;-61
2023/12/23 09:27:46;;;;;;;1.75;0.73;;;6.40;99.90;;;;;;5065852;28;20033;-61
2023/12/23 09:30:12;;;;;;;2.03;0.90;;;6.40;99.90;;;;;;5066891;28;20514;-61
2023/12/23 09:32:38;;;;;;;2.40;0.70;;;6.40;99.90;;;;;;5055565;28;20395;-61
2023/12/23 09:35:03;;;;;;;1.60;0.70;;;6.40;99.90;;;;;;5063668;28;20040;-61
2023/12/23 09:37:29;;;;;;;1.42;0.70;;;6.40;99.90;;;;;;5055605;28;20047;-61
2023/12/23 09:39:55;;;;;;;1.00;0.70;;;6.50;99.90;;;;;;5072457;28;20054;-61
2023/12/23 09:42:24;;;;;;;1.30;0.80;;;6.50;99.90;;;;;;5050560;28;20036;-61
2023/12/23 09:44:50;;;;;;;1.40;1.00;;;6.50;99.90;;;;;;5067867;28;20047;-61
2023/12/23 09:47:16;;;;;;;1.73;0.77;;;6.50;99.90;;;;;;5054975;28;20055;-61
2023/12/23 09:49:42;;;;;;;1.48;0.70;;;6.50;99.90;;;;;;5066925;28;20369;-61
2023/12/23 09:52:08;;;;;;;2.45;0.80;;;6.60;99.90;;;;;;5055437;28;20042;-61
2023/12/23 09:54:41;;;;;;;0.85;0.60;;;6.60;99.90;;;;;;5069575;28;20036;-61
2023/12/23 09:57:07;;;;;;;0.60;0.52;;;6.60;99.90;;;;;;5069800;28;20093;-61
2023/12/23 09:59:34;;;;;;;1.60;0.77;;;6.60;99.90;;;;;;5047961;28;20123;-61
2023/12/23 10:02:00;;;;;;;2.25;1.10;;;6.60;99.90;;;;;;5068530;28;20056;-60
2023/12/23 10:04:28;;;;;;;1.73;1.05;;;6.50;99.90;;;;;;5071984;28;20043;-61
2023/12/23 10:06:54;;;;;;;1.23;0.90;;;6.60;99.90;;;;;;5060779;28;20044;-61
2023/12/23 10:09:21;;;;;;;0.90;0.77;;;6.60;99.90;;;;;;5069259;28;20039;-61
2023/12/23 10:11:47;;;;;;;1.92;1.17;;;6.60;99.90;;;;;;5072088;28;20488;-60
2023/12/23 10:14:13;;;;;;;1.95;1.30;;;6.60;99.90;;;;;;5059993;28;20069;-61
2023/12/23 10:16:41;;;;;;;2.53;1.58;;;6.60;99.90;;;;;;5052997;28;20077;-60
2023/12/23 10:19:10;;;;;;;1.88;1.38;;;6.60;99.90;;;;;;5054786;28;20561;-61
2023/12/23 10:21:36;;;;;;;91.88;6.82;;;6.60;99.90;;;;;;5041639;28;20047;-61
2023/12/23 10:24:02;;;;;;;2.10;1.50;;;6.60;99.90;;;;;;5056812;28;20039;-61
2023/12/23 10:26:29;;;;;;;2.35;1.50;;;6.60;99.90;;;;;;5056782;28;20044;-61
2023/12/23 10:29:03;;;;;;;2.17;1.77;;;6.70;99.90;;;;;;5066279;28;20496;-61
2023/12/23 10:31:32;;;;;;;4.60;2.20;;;6.70;99.90;;;;;;5040302;28;20225;-60
2023/12/23 10:34:06;;;;;;;3.15;2.30;;;6.70;99.90;;;;;;5066566;28;20052;-61
2023/12/23 10:36:32;;;;;;;2.83;1.60;;;6.70;99.90;;;;;;5052479;28;20072;-61
2023/12/23 10:39:02;;;;;;;2.28;1.30;;;6.70;99.90;;;;;;5053239;28;20616;-61
2023/12/23 10:41:45;;;;;;;2.42;1.67;;;6.70;99.90;;;;;;5053937;28;20052;-61
2023/12/23 10:44:12;;;;;;;3.67;2.20;;;6.70;99.90;;;;;;5065599;28;20477;-61
2023/12/23 10:46:39;;;;;;;4.22;2.10;;;6.70;99.90;;;;;;5036727;28;20048;-61
2023/12/23 10:49:07;;;;;;;5.38;2.08;;;6.80;99.90;;;;;;5041199;28;20049;-61
2023/12/23 10:51:33;;;;;;;5.35;2.67;;;6.80;99.90;;;;;;5053954;28;20048;-60
2023/12/23 10:54:00;;;;;;;4.88;2.70;;;6.90;99.90;;;;;;5036871;28;20501;-61
2023/12/23 10:56:27;;;;;;;3.40;2.13;;;6.90;99.90;;;;;;5050872;28;20048;-60
2023/12/23 10:58:54;;;;;;;4.45;2.45;;;6.90;99.90;;;;;;5049712;28;20060;-61
2023/12/23 11:01:27;;;;;;;7.30;3.03;;;7.00;99.90;;;;;;5058239;28;20139;-61
2023/12/23 11:03:54;;;;;;;5.97;2.42;;;7.10;99.90;;;;;;5063497;28;20110;-61
2023/12/23 11:06:22;;;;;;;5.50;2.58;;;7.20;99.90;;;;;;5064056;28;20044;-61
2023/12/23 11:08:50;;;;;;;7.47;3.58;;;7.20;99.90;;;;;;5062388;28;20032;-61
2023/12/23 11:11:17;;;;;;;12.32;5.35;;;7.30;99.90;;;;;;5046175;28;20047;-61
2023/12/23 11:13:43;;;;;;;7.72;3.40;;;7.40;99.90;;;;;;5065166;28;20577;-61
2023/12/23 11:16:10;;;;;;;6.30;3.33;;;7.50;99.90;;;;;;5064382;28;20032;-61
2023/12/23 11:18:39;;;;;;;9.18;3.65;;;7.60;99.90;;;;;;5063356;28;20044;-61
2023/12/23 11:21:16;;;;;;;9.68;3.10;;;7.60;99.90;;;;;;5065007;28;20046;-61
2023/12/23 11:23:42;;;;;;;8.52;2.88;;;7.70;99.90;;;;;;5047353;28;20477;-61
2023/12/23 11:26:42;;;;;;;10.20;2.92;;;7.70;99.90;;;;;;5064178;28;20058;-61
2023/12/23 11:29:16;;;;;;;9.43;2.65;;;7.80;99.90;;;;;;5051383;28;20037;-60
2023/12/23 11:31:42;;;;;;;9.95;2.85;;;7.80;99.90;;;;;;5063137;28;20117;-61
2023/12/23 11:34:15;;;;;;;8.45;2.88;;;7.80;99.90;;;;;;5064067;28;20496;-61
2023/12/23 11:36:43;;;;;;;8.15;3.33;;;7.80;99.90;;;;;;5047818;28;20488;-61
2023/12/23 11:39:13;;;;;;;8.82;3.13;;;7.90;99.90;;;;;;5033075;28;20497;-61
2023/12/23 11:41:43;;;;;;;9.27;4.03;;;7.90;99.90;;;;;;5064161;28;20070;-61
2023/12/23 11:44:11;;;;;;;5.93;2.50;;;8.00;99.90;;;;;;5067616;28;20122;-61
2023/12/23 11:46:39;;;;;;;9.95;3.58;;;8.00;99.90;;;;;;5065589;28;20048;-61
2023/12/23 11:49:10;;;;;;;7.00;3.20;;;8.00;99.90;;;;;;5064360;28;20096;-61
2023/12/23 11:51:40;;;;;;;9.05;3.40;;;8.00;99.90;;;;;;5062897;28;20032;-61
2023/12/23 11:54:07;;;;;;;6.65;3.00;;;8.00;99.90;;;;;;5062491;28;20047;-61
2023/12/23 11:56:33;;;;;;;6.82;2.47;;;8.10;99.90;;;;;;5059656;28;20075;-61
2023/12/23 11:59:01;;;;;;;5.57;2.13;;;8.10;99.90;;;;;;5029248;28;20133;-61
2023/12/23 12:01:31;;;;;;;3.42;2.22;;;8.20;99.90;;;;;;5076148;28;20044;-61
2023/12/23 12:03:57;;;;;;;5.22;2.20;;;8.20;99.90;;;;;;5058548;28;20641;-60
2023/12/23 12:06:24;;;;;;;6.40;2.60;;;8.20;99.90;;;;;;5058705;28;20147;-61
2023/12/23 12:08:50;;;;;;;6.75;1.98;;;8.30;99.90;;;;;;5056292;28;20043;-61
2023/12/23 12:11:17;;;;;;;5.43;2.35;;;8.30;99.90;;;;;;5054232;28;20050;-61
2023/12/23 12:13:45;;;;;;;6.05;2.30;;;8.30;99.90;;;;;;5056154;28;20047;-61
2023/12/23 12:16:11;;;;;;;4.35;2.33;;;8.30;99.90;;;;;;5040937;28;20106;-61
2023/12/23 12:18:39;;;;;;;3.97;2.30;;;8.30;99.90;;;;;;5044290;28;20426;-61
2023/12/23 12:21:05;;;;;;;6.90;2.38;;;8.30;99.90;;;;;;5047768;28;20040;-61
2023/12/23 12:23:30;;;;;;;4.50;2.30;;;8.30;99.90;;;;;;5048411;28;20093;-61
2023/12/23 12:25:57;;;;;;;4.22;2.40;;;8.30;99.90;;;;;;5080357;28;20044;-61
2023/12/23 12:28:23;;;;;;;3.55;1.98;;;8.40;99.90;;;;;;5062737;28;20485;-61
2023/12/23 12:30:49;;;;;;;6.80;3.38;;;8.40;99.90;;;;;;5065878;28;20047;-61
2023/12/23 12:33:15;;;;;;;6.60;2.40;;;8.50;99.90;;;;;;5065247;28;20036;-61
2023/12/23 12:35:41;;;;;;;10.40;2.45;;;8.70;99.90;;;;;;5065598;28;20039;-61
2023/12/23 12:38:10;;;;;;;13.25;2.47;;;8.80;99.90;;;;;;5066821;28;20044;-61
2023/12/23 12:40:36;;;;;;;16.17;2.90;;;8.90;99.90;;;;;;5059865;28;20038;-61
2023/12/23 12:43:05;;;;;;;25.80;4.47;;;9.00;99.90;;;;;;5062003;28;20044;-61
2023/12/23 12:45:38;;;;;;;30.88;5.63;;;9.10;99.90;;;;;;5063062;28;20451;-61
2023/12/23 12:48:11;;;;;;;25.20;5.05;;;9.20;99.90;;;;;;5065662;28;20094;-61
2023/12/23 12:50:39;;;;;;;29.13;5.47;;;9.30;99.90;;;;;;5057896;28;20501;-61